Time;durP1;ratioP1;P1;durP2;ratioP2;P2;SDS_P1;SDS_P2;PMS_P1;PMS_P2;Temp;Humidity;BMP_temperature;BMP_pressure;BME280_temperature;BME280_humidity;BME280_pressure;Samples;Min_cycle;Max_cycle;Signal;HPM_P1;HPM_P2
2022/04/14 00:01:53;;;;;;;34.45;16.77;;;;;;;5.07;86.50;100476.66;5035191;28;20077;-75
2022/04/14 00:04:21;;;;;;;29.98;17.23;;;;;;;4.95;87.13;100476.03;5035026;28;20045;-75
2022/04/14 00:06:48;;;;;;;34.47;16.58;;;;;;;4.93;86.92;100478.78;5034122;28;20041;-75
2022/04/14 00:09:16;;;;;;;34.97;16.75;;;;;;;4.96;86.39;100478.72;5035343;28;20107;-75
2022/04/14 00:11:45;;;;;;;33.17;15.85;;;;;;;4.92;86.73;100479.69;5035316;28;20119;-75
2022/04/14 00:14:12;;;;;;;31.65;16.05;;;;;;;4.91;86.15;100481.47;5035135;28;20072;-75
2022/04/14 00:16:40;;;;;;;37.20;18.00;;;;;;;4.79;85.66;100471.91;5034877;28;20046;-76
2022/04/14 00:19:08;;;;;;;36.85;18.88;;;;;;;4.87;86.14;100478.88;5035151;28;20037;-75
2022/04/14 00:21:36;;;;;;;34.60;18.67;;;;;;;4.85;86.59;100475.38;5034671;28;20045;-76
2022/04/14 00:24:04;;;;;;;33.45;17.67;;;;;;;4.83;88.47;100471.84;5035124;28;20115;-75
2022/04/14 00:26:31;;;;;;;34.10;16.85;;;;;;;4.72;89.10;100469.44;5035026;28;20156;-76
2022/04/14 00:29:00;;;;;;;34.00;16.95;;;;;;;4.67;89.73;100472.19;5034977;28;20046;-75
2022/04/14 00:31:28;;;;;;;34.28;18.23;;;;;;;4.55;89.59;100477.81;5034756;28;20072;-75
2022/04/14 00:33:55;;;;;;;33.63;17.05;;;;;;;4.63;89.42;100471.38;5034838;28;20390;-75
2022/04/14 00:36:23;;;;;;;34.03;17.65;;;;;;;4.62;89.46;100474.97;5034625;28;20538;-75
2022/04/14 00:38:50;;;;;;;33.53;16.42;;;;;;;4.52;90.41;100473.41;5034851;28;20046;-76
2022/04/14 00:41:18;;;;;;;26.73;14.75;;;;;;;4.55;90.75;100462.63;5034395;28;20053;-77
2022/04/14 00:43:52;;;;;;;29.23;13.95;;;;;;;4.49;91.35;100470.81;5049441;28;20045;-75
2022/04/14 00:46:21;;;;;;;26.80;14.15;;;;;;;4.45;91.88;100472.66;5055328;28;20052;-76
2022/04/14 00:48:50;;;;;;;27.27;14.38;;;;;;;4.39;91.75;100463.88;5054393;28;20041;-78
2022/04/14 00:51:17;;;;;;;31.08;15.95;;;;;;;4.44;91.79;100470.88;5054059;28;20500;-76
2022/04/14 00:53:44;;;;;;;30.67;15.27;;;;;;;4.51;91.07;100470.78;5054519;28;20102;-76
2022/04/14 00:56:12;;;;;;;29.25;15.55;;;;;;;4.41;91.35;100464.72;5054420;28;20495;-75
2022/04/14 00:58:40;;;;;;;29.98;15.40;;;;;;;4.39;91.17;100466.56;5054376;28;20073;-75
2022/04/14 01:01:08;;;;;;;30.55;15.63;;;;;;;4.41;90.95;100468.28;5044912;28;20052;-76
2022/04/14 01:03:38;;;;;;;30.63;15.57;;;;;;;4.39;91.05;100467.44;5034293;28;20072;-76
2022/04/14 01:06:05;;;;;;;27.35;13.35;;;;;;;4.39;90.87;100475.44;5033857;28;20546;-76
2022/04/14 01:08:33;;;;;;;33.67;14.27;;;;;;;4.42;90.17;100469.16;5033520;28;20049;-76
2022/04/14 01:11:01;;;;;;;29.77;14.95;;;;;;;4.32;90.85;100461.34;5034143;28;20071;-76
2022/04/14 01:13:29;;;;;;;24.98;13.05;;;;;;;4.38;90.69;100470.16;5033966;28;20050;-76
2022/04/14 01:15:58;;;;;;;30.27;13.48;;;;;;;4.33;90.33;100467.56;5034040;28;20049;-76
2022/04/14 01:18:26;;;;;;;22.83;12.68;;;;;;;4.31;90.75;100469.38;5033988;28;20049;-75
2022/04/14 01:20:55;;;;;;;23.80;12.52;;;;;;;4.24;91.13;100463.28;5053524;28;20488;-76
2022/04/14 01:23:36;;;;;;;26.23;13.02;;;;;;;4.26;90.61;100469.47;5053356;28;20045;-76
2022/04/14 01:26:04;;;;;;;26.25;13.30;;;;;;;4.10;91.22;100454.66;5053782;28;20044;-75
2022/04/14 01:28:31;;;;;;;23.35;12.82;;;;;;;4.08;91.38;100465.41;5053023;28;20048;-76
2022/04/14 01:30:59;;;;;;;28.88;13.98;;;;;;;4.06;92.00;100462.75;5053036;28;20114;-77
2022/04/14 01:33:26;;;;;;;27.55;13.38;;;;;;;4.08;91.37;100464.50;5053202;28;20049;-76
2022/04/14 01:35:54;;;;;;;27.40;13.82;;;;;;;4.02;91.65;100463.72;5053095;28;20103;-75
2022/04/14 01:38:21;;;;;;;25.65;13.15;;;;;;;3.99;91.90;100463.78;5053517;28;20550;-75
2022/04/14 01:40:50;;;;;;;24.63;12.90;;;;;;;4.08;91.58;100462.72;5053503;28;20044;-76
2022/04/14 01:43:17;;;;;;;26.42;13.73;;;;;;;4.02;92.26;100471.72;5053246;28;20102;-76
2022/04/14 01:45:50;;;;;;;29.00;13.90;;;;;;;4.08;91.13;100468.06;5053301;28;20056;-75
2022/04/14 01:48:18;;;;;;;31.73;13.80;;;;;;;3.99;91.36;100461.09;5054000;28;20040;-76
2022/04/14 01:50:45;;;;;;;27.13;14.13;;;;;;;3.94;91.82;100462.97;5053397;28;20068;-75
2022/04/14 01:53:13;;;;;;;27.73;14.27;;;;;;;4.10;91.52;100463.56;5053247;28;20102;-75
2022/04/14 01:55:40;;;;;;;27.02;14.43;;;;;;;4.23;91.34;100458.84;5053350;28;20500;-75
2022/04/14 01:58:09;;;;;;;26.08;13.27;;;;;;;4.20;91.80;100457.13;5053493;28;20487;-75
2022/04/14 02:00:37;;;;;;;25.85;13.70;;;;;;;4.30;91.98;100452.47;5053239;28;20438;-75
2022/04/14 02:03:04;;;;;;;25.15;13.65;;;;;;;4.22;92.15;100454.41;5053009;28;20045;-75
2022/04/14 02:05:32;;;;;;;24.50;12.57;;;;;;;4.27;91.71;100462.34;5053227;28;20455;-75
2022/04/14 02:07:59;;;;;;;26.15;12.75;;;;;;;4.15;91.87;100459.00;5053316;28;20048;-75
2022/04/14 02:10:27;;;;;;;24.02;11.05;;;;;;;4.05;92.57;100457.41;5053005;28;20407;-75
2022/04/14 02:12:54;;;;;;;21.85;12.10;;;;;;;4.05;92.85;100458.31;5053197;28;20044;-75
2022/04/14 02:15:23;;;;;;;24.83;12.82;;;;;;;4.20;91.50;100454.44;5053209;28;20052;-75
2022/04/14 02:17:51;;;;;;;24.17;12.57;;;;;;;4.25;90.65;100454.34;5052670;28;20052;-75
2022/04/14 02:20:18;;;;;;;26.02;13.98;;;;;;;4.21;91.00;100452.63;5053025;28;20103;-75
2022/04/14 02:22:45;;;;;;;28.42;15.38;;;;;;;4.10;91.59;100439.50;5052930;28;20488;-75
2022/04/14 02:25:13;;;;;;;29.33;15.30;;;;;;;4.19;91.50;100446.44;5052883;28;20052;-75
2022/04/14 02:27:41;;;;;;;32.80;15.88;;;;;;;4.16;91.60;100450.06;5052780;28;20049;-75
2022/04/14 02:30:09;;;;;;;31.83;16.30;;;;;;;4.10;91.87;100443.97;5052896;28;20106;-75
2022/04/14 02:32:38;;;;;;;32.80;17.05;;;;;;;4.16;91.65;100446.50;5052326;28;20045;-75
2022/04/14 02:35:06;;;;;;;27.95;15.68;;;;;;;4.05;92.11;100447.59;5052829;28;20053;-75
2022/04/14 02:37:34;;;;;;;31.17;15.45;;;;;;;3.97;92.34;100444.22;5053009;28;20056;-75
2022/04/14 02:40:02;;;;;;;29.08;15.13;;;;;;;3.95;92.32;100439.78;5056031;28;20103;-75
2022/04/14 02:42:29;;;;;;;30.63;15.30;;;;;;;3.88;92.37;100439.91;5056630;28;20049;-75
2022/04/14 02:44:56;;;;;;;32.17;14.75;;;;;;;3.85;92.87;100448.00;5056805;28;20107;-75
2022/04/14 02:47:24;;;;;;;27.40;14.38;;;;;;;3.77;93.10;100442.78;5056657;28;20048;-75
2022/04/14 02:49:53;;;;;;;28.75;15.55;;;;;;;3.80;93.10;100447.19;5039630;28;20049;-75
2022/04/14 02:52:20;;;;;;;28.60;15.23;;;;;;;3.90;91.98;100442.56;5036832;28;20053;-76
2022/04/14 02:54:48;;;;;;;32.22;16.67;;;;;;;3.96;91.91;100441.56;5036827;28;20052;-75
2022/04/14 02:57:15;;;;;;;30.20;16.40;;;;;;;4.02;92.25;100445.00;5036074;28;20037;-75
2022/04/14 02:59:43;;;;;;;32.65;16.33;;;;;;;4.04;91.55;100443.19;5036686;28;20052;-75
2022/04/14 03:02:10;;;;;;;31.33;15.90;;;;;;;3.94;92.52;100448.72;5036241;28;20107;-75
2022/04/14 03:04:38;;;;;;;28.30;14.77;;;;;;;3.82;92.93;100447.16;5036600;28;20407;-75
2022/04/14 03:07:07;;;;;;;27.83;15.40;;;;;;;3.81;93.07;100446.28;5036375;28;20096;-75
2022/04/14 03:09:34;;;;;;;28.38;15.43;;;;;;;3.70;93.33;100446.47;5036121;28;20049;-75
2022/04/14 03:12:02;;;;;;;29.17;15.52;;;;;;;3.84;92.86;100448.00;5036436;28;20481;-75
2022/04/14 03:14:29;;;;;;;30.50;15.40;;;;;;;3.92;92.50;100440.75;5036450;28;20123;-75
2022/04/14 03:16:57;;;;;;;27.42;14.88;;;;;;;3.90;93.22;100445.25;5036011;28;20048;-76
2022/04/14 03:19:26;;;;;;;29.02;14.68;;;;;;;3.88;93.07;100436.38;5036281;28;20404;-76
2022/04/14 03:21:53;;;;;;;28.60;14.65;;;;;;;3.69;94.44;100441.19;5036076;28;20176;-76
2022/04/14 03:24:22;;;;;;;27.60;15.02;;;;;;;3.76;94.07;100438.34;5036126;28;20046;-75
2022/04/14 03:26:49;;;;;;;26.00;14.45;;;;;;;3.83;93.65;100425.75;5036073;28;20091;-75
2022/04/14 03:29:17;;;;;;;27.02;14.40;;;;;;;3.99;93.16;100429.03;5036111;28;20041;-75
2022/04/14 03:31:44;;;;;;;30.45;15.55;;;;;;;3.98;93.40;100423.69;5035532;28;20053;-75
2022/04/14 03:34:12;;;;;;;27.60;14.57;;;;;;;3.66;94.47;100431.41;5036022;28;20103;-75
2022/04/14 03:36:39;;;;;;;27.55;14.70;;;;;;;3.83;93.76;100430.22;5036001;28;20041;-75
2022/04/14 03:39:07;;;;;;;24.85;13.52;;;;;;;3.77;93.17;100426.75;5044842;28;20060;-75
2022/04/14 03:41:36;;;;;;;31.15;14.90;;;;;;;3.85;93.50;100423.03;5054225;28;20597;-75
2022/04/14 03:44:03;;;;;;;31.17;14.75;;;;;;;3.63;94.04;100415.44;5054948;28;20561;-75
2022/04/14 03:46:31;;;;;;;26.70;13.45;;;;;;;3.71;94.13;100418.00;5037036;28;20520;-75
2022/04/14 03:48:58;;;;;;;26.52;14.20;;;;;;;3.96;93.11;100425.50;5045546;28;20048;-75
2022/04/14 03:51:26;;;;;;;26.00;13.50;;;;;;;3.97;92.53;100422.81;5054299;28;20041;-75
2022/04/14 03:53:53;;;;;;;25.80;13.50;;;;;;;3.85;93.92;100428.38;5055596;28;20060;-76
2022/04/14 03:56:21;;;;;;;26.08;12.95;;;;;;;3.91;93.46;100425.63;5055645;28;20045;-75
2022/04/14 03:58:50;;;;;;;25.70;13.88;;;;;;;3.90;93.06;100422.06;5055100;28;20049;-75
2022/04/14 04:01:18;;;;;;;28.05;13.80;;;;;;;3.95;92.94;100426.44;5055175;28;20045;-75
2022/04/14 04:03:45;;;;;;;24.90;12.98;;;;;;;3.97;92.68;100428.19;5055342;28;20048;-75
2022/04/14 04:06:12;;;;;;;25.15;12.93;;;;;;;4.00;92.86;100421.88;5055286;28;20075;-75
2022/04/14 04:08:40;;;;;;;28.52;13.60;;;;;;;3.98;93.34;100419.25;5055239;28;20052;-75
2022/04/14 04:11:07;;;;;;;25.27;13.88;;;;;;;4.03;92.81;100417.34;5055279;28;20053;-75
2022/04/14 04:13:35;;;;;;;28.67;14.90;;;;;;;4.02;92.99;100423.59;5054883;28;20045;-75
2022/04/14 04:16:04;;;;;;;26.38;13.95;;;;;;;4.03;93.10;100416.44;5055008;28;20045;-74
2022/04/14 04:18:33;;;;;;;25.17;14.35;;;;;;;4.03;93.40;100420.03;5054865;28;20045;-76
2022/04/14 04:21:00;;;;;;;31.67;16.30;;;;;;;4.06;93.37;100425.31;5054940;28;20122;-75
2022/04/14 04:23:28;;;;;;;35.08;18.02;;;;;;;4.14;93.03;100411.78;5034651;28;20049;-77
2022/04/14 04:25:55;;;;;;;34.55;16.70;;;;;;;4.17;93.61;100422.44;5031369;28;20045;-75
2022/04/14 04:28:30;;;;;;;31.60;15.50;;;;;;;4.19;93.06;100417.03;5030825;28;20401;-75
2022/04/14 04:30:57;;;;;;;29.50;15.05;;;;;;;4.19;93.36;100420.59;5032284;28;20679;-74
2022/04/14 04:33:26;;;;;;;26.52;14.02;;;;;;;4.20;93.74;100425.03;5031333;28;20050;-75
2022/04/14 04:35:54;;;;;;;28.63;14.00;;;;;;;4.22;94.14;100422.31;5031255;28;20454;-76
2022/04/14 04:38:22;;;;;;;26.00;13.95;;;;;;;4.42;93.31;100413.00;5031279;28;20527;-77
2022/04/14 04:40:49;;;;;;;29.08;13.65;;;;;;;4.43;93.36;100410.28;5030765;28;20054;-75
2022/04/14 04:43:16;;;;;;;22.90;13.32;;;;;;;4.45;93.09;100416.47;5041686;28;20049;-77
2022/04/14 04:45:46;;;;;;;23.50;12.88;;;;;;;4.48;93.75;100419.06;5050798;28;20126;-75
2022/04/14 04:48:13;;;;;;;27.27;13.63;;;;;;;4.55;93.65;100417.16;5050820;28;20094;-78
2022/04/14 04:50:42;;;;;;;30.90;13.82;;;;;;;4.62;92.99;100421.44;5050674;28;20362;-76
2022/04/14 04:53:09;;;;;;;26.13;15.13;;;;;;;4.77;92.42;100414.88;5050769;28;20049;-76
2022/04/14 04:55:37;;;;;;;22.45;12.40;;;;;;;4.85;91.74;100412.03;5050556;28;20068;-75
2022/04/14 04:58:04;;;;;;;19.08;10.25;;;;;;;5.08;90.06;100421.28;5050483;28;20119;-76
2022/04/14 05:00:32;;;;;;;18.60;10.23;;;;;;;5.03;89.43;100425.88;5050643;28;20049;-76
2022/04/14 05:03:00;;;;;;;25.05;14.57;;;;;;;5.12;89.56;100420.31;5049089;28;20407;-75
2022/04/14 05:05:27;;;;;;;35.97;17.42;;;;;;;5.13;89.81;100414.03;5050771;28;20413;-75
2022/04/14 05:07:56;;;;;;;25.45;14.15;;;;;;;5.24;89.10;100419.09;5050777;28;20119;-75
2022/04/14 05:10:24;;;;;;;28.77;15.13;;;;;;;5.34;87.36;100420.66;5050422;28;20102;-75
2022/04/14 05:12:51;;;;;;;23.70;13.43;;;;;;;5.45;86.07;100416.81;5049864;28;20053;-75
2022/04/14 05:15:19;;;;;;;18.65;10.88;;;;;;;5.41;84.83;100420.50;5054181;28;20048;-73
2022/04/14 05:17:46;;;;;;;17.77;9.90;;;;;;;5.57;85.36;100420.97;5053764;28;20091;-75
2022/04/14 05:20:14;;;;;;;39.20;21.98;;;;;;;5.68;85.50;100424.25;5054011;28;20053;-75
2022/04/14 05:22:41;;;;;;;29.48;15.88;;;;;;;5.73;83.77;100426.81;5053911;28;20049;-75
2022/04/14 05:25:10;;;;;;;20.33;10.35;;;;;;;5.78;83.66;100420.38;5053994;28;20056;-75
2022/04/14 05:27:39;;;;;;;18.33;8.55;;;;;;;5.84;83.92;100419.34;5053465;28;20484;-75
2022/04/14 05:30:08;;;;;;;17.23;8.45;;;;;;;5.94;83.32;100414.63;5053790;28;20056;-75
2022/04/14 05:32:35;;;;;;;18.52;8.70;;;;;;;6.05;84.34;100423.25;5053673;28;20166;-76
2022/04/14 05:35:03;;;;;;;18.60;8.75;;;;;;;6.17;83.29;100421.16;5053515;28;20526;-75
2022/04/14 05:37:31;;;;;;;20.13;8.57;;;;;;;6.23;83.37;100427.22;5053783;28;20049;-75
2022/04/14 05:39:58;;;;;;;16.13;8.13;;;;;;;6.34;82.57;100428.72;5053362;28;20519;-75
2022/04/14 05:42:27;;;;;;;20.13;8.25;;;;;;;6.36;82.32;100427.75;5053481;28;20557;-72
2022/04/14 05:44:55;;;;;;;16.02;8.07;;;;;;;6.57;81.46;100433.38;5053324;28;20052;-75
2022/04/14 05:47:24;;;;;;;20.10;9.63;;;;;;;6.53;83.43;100434.41;5053400;28;20075;-74
2022/04/14 05:49:52;;;;;;;18.55;9.93;;;;;;;6.53;84.29;100423.66;5053102;28;20488;-78
2022/04/14 05:52:20;;;;;;;21.80;9.00;;;;;;;6.66;83.96;100435.78;5053328;28;20047;-74
2022/04/14 05:54:47;;;;;;;17.15;8.80;;;;;;;6.70;85.08;100433.00;5053106;28;20447;-75
2022/04/14 05:57:15;;;;;;;19.98;9.27;;;;;;;6.81;86.39;100431.75;5053318;28;20392;-75
2022/04/14 05:59:44;;;;;;;19.75;8.75;;;;;;;7.07;86.27;100431.84;5053110;28;20435;-75
2022/04/14 06:02:11;;;;;;;21.90;8.88;;;;;;;7.16;84.80;100426.19;5053192;28;20049;-74
2022/04/14 06:04:39;;;;;;;15.52;7.63;;;;;;;7.25;83.42;100425.88;5053322;28;20045;-74
2022/04/14 06:07:06;;;;;;;14.05;6.93;;;;;;;7.39;82.04;100429.91;5053143;28;20049;-75
2022/04/14 06:09:34;;;;;;;16.00;6.70;;;;;;;7.37;80.95;100421.00;5052704;28;20098;-75
2022/04/14 06:12:01;;;;;;;14.38;6.40;;;;;;;7.45;79.14;100424.31;5053238;28;20049;-75
2022/04/14 06:14:30;;;;;;;13.85;6.40;;;;;;;7.47;77.57;100422.44;5052738;28;20114;-75
2022/04/14 06:16:59;;;;;;;17.83;6.00;;;;;;;7.43;75.68;100420.81;5049839;28;20049;-75
2022/04/14 06:19:27;;;;;;;13.98;5.65;;;;;;;7.63;75.77;100430.00;5049381;28;20045;-76
2022/04/14 06:21:54;;;;;;;12.20;5.70;;;;;;;7.71;75.20;100429.72;5049040;28;20506;-75
2022/04/14 06:24:21;;;;;;;11.43;5.18;;;;;;;7.93;75.02;100419.06;5048983;28;20036;-78
2022/04/14 06:26:49;;;;;;;13.75;6.10;;;;;;;8.10;73.35;100427.41;5049428;28;20416;-75
2022/04/14 06:29:17;;;;;;;18.92;5.53;;;;;;;8.27;73.05;100424.09;5049109;28;20127;-76
2022/04/14 06:31:44;;;;;;;19.48;6.60;;;;;;;8.39;71.94;100421.88;5049348;28;20502;-76
2022/04/14 06:34:13;;;;;;;14.30;6.00;;;;;;;8.33;72.08;100427.50;5049085;28;20055;-77
2022/04/14 06:36:41;;;;;;;15.32;5.47;;;;;;;8.27;71.82;100423.22;5049190;28;20102;-75
2022/04/14 06:39:12;;;;;;;13.43;4.95;;;;;;;8.43;73.02;100425.34;5048753;28;20048;-75
2022/04/14 06:41:40;;;;;;;12.85;4.85;;;;;;;8.49;72.22;100425.09;5049743;28;20056;-75
2022/04/14 06:44:08;;;;;;;13.52;5.15;;;;;;;8.56;71.59;100418.56;5048868;28;20061;-75
2022/04/14 06:46:35;;;;;;;12.57;5.28;;;;;;;8.74;72.22;100422.38;5048951;28;20051;-75
2022/04/14 06:49:05;;;;;;;11.90;5.15;;;;;;;8.75;71.13;100429.50;5048878;28;20386;-76
2022/04/14 06:51:34;;;;;;;12.75;5.20;;;;;;;8.85;70.75;100424.63;5047934;28;20060;-77
2022/04/14 06:54:02;;;;;;;14.40;4.97;;;;;;;9.04;71.04;100426.56;5048265;28;20556;-76
2022/04/14 06:56:29;;;;;;;12.57;4.90;;;;;;;9.17;70.15;100422.44;5048368;28;20044;-76
2022/04/14 06:58:57;;;;;;;20.92;9.07;;;;;;;9.26;69.78;100423.88;5049201;28;20056;-77
2022/04/14 07:01:24;;;;;;;12.63;5.18;;;;;;;9.34;69.43;100413.63;5049058;28;20106;-76
2022/04/14 07:03:52;;;;;;;24.00;7.63;;;;;;;9.38;67.21;100417.09;5048902;28;20137;-76
2022/04/14 07:06:19;;;;;;;13.45;5.90;;;;;;;9.44;66.04;100419.53;5048582;28;20056;-77
2022/04/14 07:08:48;;;;;;;13.40;4.88;;;;;;;9.59;66.56;100426.09;5048380;28;20500;-76
2022/04/14 07:11:16;;;;;;;12.05;4.95;;;;;;;9.63;65.75;100427.72;5048868;28;20336;-75
2022/04/14 07:13:43;;;;;;;11.07;4.20;;;;;;;9.76;64.27;100416.38;5049063;28;20083;-76
2022/04/14 07:16:11;;;;;;;17.63;6.68;;;;;;;9.81;64.89;100412.53;5048572;28;20045;-76
2022/04/14 07:18:38;;;;;;;14.55;5.05;;;;;;;9.88;64.44;100409.56;5048899;28;20049;-76
2022/04/14 07:21:06;;;;;;;15.50;5.95;;;;;;;9.93;64.14;100415.63;5040433;28;20049;-76
2022/04/14 07:23:34;;;;;;;11.73;4.68;;;;;;;10.06;64.56;100411.47;5028517;28;20053;-76
2022/04/14 07:26:03;;;;;;;10.20;4.63;;;;;;;10.17;64.08;100410.94;5030153;28;20057;-76
2022/04/14 07:28:30;;;;;;;10.20;4.68;;;;;;;10.25;63.01;100418.72;5032448;28;20046;-76
2022/04/14 07:30:58;;;;;;;10.88;4.70;;;;;;;10.39;62.41;100405.44;5032452;28;20403;-77
2022/04/14 07:33:25;;;;;;;11.10;4.50;;;;;;;10.32;59.95;100406.66;5032322;28;20049;-76
2022/04/14 07:35:53;;;;;;;11.93;4.78;;;;;;;10.36;60.16;100405.56;5032469;28;20049;-77
2022/04/14 07:38:20;;;;;;;14.63;4.38;;;;;;;10.43;60.66;100407.09;5032184;28;20041;-76
2022/04/14 07:40:47;;;;;;;11.63;4.47;;;;;;;10.55;59.89;100404.75;5032280;28;20240;-76
2022/04/14 07:43:17;;;;;;;11.25;4.78;;;;;;;10.45;59.84;100401.63;5042982;28;20049;-76
2022/04/14 07:45:45;;;;;;;11.73;4.70;;;;;;;10.48;58.93;100393.38;5051797;28;20061;-76
2022/04/14 07:48:13;;;;;;;12.75;4.72;;;;;;;10.71;59.26;100400.38;5051909;28;20504;-77
2022/04/14 07:50:40;;;;;;;9.60;3.67;;;;;;;10.81;59.50;100400.81;5043178;28;20041;-77
2022/04/14 07:53:08;;;;;;;10.40;3.80;;;;;;;10.85;58.58;100397.00;5049490;28;20057;-74
2022/04/14 07:55:36;;;;;;;10.65;4.38;;;;;;;10.90;58.26;100401.31;5051484;28;20423;-75
2022/04/14 07:58:07;;;;;;;10.70;4.22;;;;;;;10.95;58.32;100392.03;5051817;28;20369;-77
2022/04/14 08:00:36;;;;;;;9.10;3.50;;;;;;;11.15;57.46;100387.44;5053796;28;20049;-75
2022/04/14 08:03:05;;;;;;;7.78;3.35;;;;;;;11.09;56.73;100385.94;5051516;28;20045;-76
2022/04/14 08:05:34;;;;;;;8.73;3.60;;;;;;;11.16;57.48;100390.09;5051269;28;20049;-77
2022/04/14 08:08:02;;;;;;;8.25;3.30;;;;;;;11.32;56.44;100389.31;5051889;28;20128;-76
2022/04/14 08:10:29;;;;;;;10.43;3.55;;;;;;;11.40;55.70;100391.63;5051542;28;20068;-75
2022/04/14 08:12:57;;;;;;;10.23;3.50;;;;;;;11.56;53.89;100392.56;5051471;28;20045;-77
2022/04/14 08:15:25;;;;;;;9.85;3.38;;;;;;;11.57;53.55;100391.63;5051586;28;20075;-75
2022/04/14 08:17:53;;;;;;;9.02;3.10;;;;;;;11.55;53.61;100382.72;5051855;28;20492;-76
2022/04/14 08:20:21;;;;;;;8.05;3.30;;;;;;;11.68;51.80;100376.69;5048344;28;20041;-75
2022/04/14 08:22:51;;;;;;;8.82;3.15;;;;;;;11.64;51.31;100370.53;5051151;28;20060;-75
2022/04/14 08:25:20;;;;;;;8.35;3.35;;;;;;;11.65;50.74;100375.00;5051081;28;20048;-75
2022/04/14 08:27:48;;;;;;;7.10;3.15;;;;;;;11.72;50.77;100370.16;5051023;28;20067;-75
2022/04/14 08:30:16;;;;;;;8.73;3.13;;;;;;;11.90;50.17;100371.00;5045768;28;20458;-76
2022/04/14 08:32:44;;;;;;;7.65;3.00;;;;;;;11.85;49.67;100373.94;5045444;28;20461;-75
2022/04/14 08:35:14;;;;;;;13.48;4.20;;;;;;;11.82;48.38;100371.41;5049689;28;20049;-75
2022/04/14 08:37:43;;;;;;;9.32;3.47;;;;;;;11.92;48.29;100370.91;5050906;28;20048;-75
2022/04/14 08:40:12;;;;;;;8.38;3.25;;;;;;;11.93;46.88;100372.66;5051041;28;20060;-75
2022/04/14 08:42:41;;;;;;;10.07;3.67;;;;;;;11.88;48.81;100371.06;5044944;28;20061;-76
2022/04/14 08:45:10;;;;;;;10.40;3.92;;;;;;;11.98;48.88;100371.47;5038220;28;20522;-75
2022/04/14 08:47:40;;;;;;;26.38;6.88;;;;;;;12.00;49.06;100371.34;5050907;28;20072;-75
2022/04/14 08:50:09;;;;;;;8.85;3.35;;;;;;;12.08;48.49;100371.88;5050531;28;20044;-76
2022/04/14 08:52:39;;;;;;;18.23;6.47;;;;;;;12.11;48.47;100371.72;5050591;28;20474;-76
2022/04/14 08:55:08;;;;;;;7.40;2.83;;;;;;;12.28;47.32;100370.78;5050372;28;20053;-75
2022/04/14 08:57:37;;;;;;;7.45;3.00;;;;;;;12.41;47.57;100370.09;5049969;28;20072;-75
2022/04/14 09:00:07;;;;;;;18.70;7.28;;;;;;;12.44;49.34;100361.78;5050306;28;20434;-76
2022/04/14 09:02:35;;;;;;;14.38;3.25;;;;;;;12.58;49.32;100369.16;5052325;28;20091;-76
2022/04/14 09:05:03;;;;;;;9.30;3.42;;;;;;;12.60;48.97;100362.66;5049465;28;20041;-76
2022/04/14 09:07:31;;;;;;;13.27;4.40;;;;;;;12.57;47.24;100360.13;5058129;28;20459;-75
2022/04/14 09:10:00;;;;;;;9.23;3.58;;;;;;;12.59;47.96;100360.91;5070307;28;20055;-75
2022/04/14 09:12:29;;;;;;;9.75;3.05;;;;;;;12.68;46.57;100356.81;5070254;28;20055;-75
2022/04/14 09:14:57;;;;;;;11.52;3.53;;;;;;;12.81;46.87;100353.41;5071209;28;20437;-75
2022/04/14 09:17:24;;;;;;;10.90;3.90;;;;;;;12.87;46.26;100353.94;5063996;28;20048;-75
2022/04/14 09:19:52;;;;;;;11.52;4.40;;;;;;;12.95;46.51;100345.38;5053836;28;20079;-75
2022/04/14 09:22:20;;;;;;;13.27;3.80;;;;;;;12.89;45.89;100338.44;5053129;28;20045;-74
2022/04/14 09:24:48;;;;;;;13.63;5.47;;;;;;;12.98;45.78;100342.47;5051954;28;20072;-75
2022/04/14 09:27:29;;;;;;;15.10;3.83;;;;;;;12.99;46.50;100340.63;5053155;28;20063;-76
2022/04/14 09:29:58;;;;;;;10.95;3.88;;;;;;;13.01;45.24;100338.69;5055842;28;20041;-75
2022/04/14 09:32:31;;;;;;;9.50;3.60;;;;;;;13.10;45.74;100338.16;5049491;28;20067;-75
2022/04/14 09:35:00;;;;;;;35.15;12.73;;;;;;;13.08;45.19;100336.50;5052404;28;20045;-74
2022/04/14 09:37:27;;;;;;;11.43;3.60;;;;;;;13.08;44.90;100336.50;5049874;28;20041;-77
2022/04/14 09:39:57;;;;;;;7.07;2.95;;;;;;;13.23;44.53;100338.28;5052243;28;20480;-75
2022/04/14 09:42:27;;;;;;;8.98;3.40;;;;;;;13.40;45.06;100328.28;5051567;28;20067;-77
2022/04/14 09:44:54;;;;;;;9.05;3.28;;;;;;;13.24;44.35;100328.31;5051756;28;20056;-74
2022/04/14 09:47:26;;;;;;;11.18;3.20;;;;;;;13.19;43.87;100325.88;5051561;28;20037;-75
2022/04/14 09:49:53;;;;;;;7.72;3.08;;;;;;;13.32;44.58;100326.91;5051297;28;20052;-75
2022/04/14 09:52:22;;;;;;;10.90;3.60;;;;;;;13.32;44.80;100326.91;5051852;28;20515;-75
2022/04/14 09:54:50;;;;;;;7.43;3.10;;;;;;;13.37;45.23;100315.75;5052009;28;20443;-75
2022/04/14 09:57:18;;;;;;;7.55;2.97;;;;;;;13.49;45.54;100306.03;5052329;28;20041;-77
2022/04/14 09:59:47;;;;;;;10.75;4.20;;;;;;;13.64;45.92;100303.34;5051933;28;20051;-76
2022/04/14 10:02:16;;;;;;;11.70;3.60;;;;;;;13.71;45.91;100302.00;5051399;28;20045;-75
2022/04/14 10:04:44;;;;;;;12.55;5.88;;;;;;;13.66;44.94;100305.00;5051822;28;20565;-75
2022/04/14 10:07:13;;;;;;;35.20;14.55;;;;;;;13.68;44.71;100305.78;5052298;28;20044;-76
2022/04/14 10:09:42;;;;;;;17.98;7.25;;;;;;;13.68;44.76;100303.06;5050114;28;20045;-75
2022/04/14 10:12:34;;;;;;;12.50;4.82;;;;;;;13.78;45.16;100306.09;5052607;28;20044;-75
2022/04/14 10:15:07;;;;;;;9.15;3.53;;;;;;;13.86;45.13;100302.88;5033820;28;20526;-76
2022/04/14 10:17:37;;;;;;;6.63;3.10;;;;;;;13.94;44.86;100289.72;5053796;28;20496;-75
2022/04/14 10:20:06;;;;;;;12.02;4.68;;;;;;;14.07;45.05;100295.22;5053929;28;20037;-75
2022/04/14 10:22:34;;;;;;;8.25;3.30;;;;;;;13.90;43.81;100291.72;5052354;28;20061;-76
2022/04/14 10:25:03;;;;;;;9.70;3.53;;;;;;;14.12;43.42;100284.06;5052636;28;20071;-75
2022/04/14 10:27:31;;;;;;;8.30;3.40;;;;;;;14.04;43.97;100276.38;5052815;28;20041;-75
2022/04/14 10:30:00;;;;;;;8.27;3.78;;;;;;;14.11;44.27;100269.63;5050518;28;20049;-72
2022/04/14 10:32:29;;;;;;;9.80;3.85;;;;;;;14.20;44.07;100271.72;5051627;28;20048;-72
2022/04/14 10:34:57;;;;;;;9.65;3.60;;;;;;;14.22;43.25;100265.31;5050287;28;20049;-72
2022/04/14 10:37:29;;;;;;;8.35;3.10;;;;;;;14.23;43.01;100246.19;5052493;28;20119;-72
2022/04/14 10:39:56;;;;;;;9.95;4.20;;;;;;;14.38;43.33;100255.19;5052662;28;20131;-72
2022/04/14 10:42:26;;;;;;;9.48;3.33;;;;;;;14.13;42.70;100255.94;5048853;28;20385;-72
2022/04/14 10:44:56;;;;;;;8.32;3.22;;;;;;;14.28;42.61;100254.06;5051756;28;20057;-72
2022/04/14 10:48:00;;;;;;;9.48;3.30;;;;;;;14.29;43.00;100253.97;5050205;28;20037;-72
2022/04/14 10:50:31;;;;;;;10.10;4.40;;;;;;;14.57;43.74;100245.84;5049247;28;20061;-72
2022/04/14 10:53:12;;;;;;;8.10;3.15;;;;;;;14.56;42.54;100246.81;5051030;28;20072;-72
2022/04/14 10:55:42;;;;;;;8.18;3.33;;;;;;;14.24;41.90;100245.22;5054241;28;20040;-72
2022/04/14 10:58:46;;;;;;;11.15;4.18;;;;;;;14.53;41.16;100241.59;5051132;28;20495;-72
2022/04/14 11:01:14;;;;;;;8.90;3.60;;;;;;;14.57;42.00;100243.97;5052994;28;20048;-72
2022/04/14 11:03:50;;;;;;;12.57;4.53;;;;;;;14.58;41.34;100237.56;5054997;28;20041;-72
2022/04/14 11:06:35;;;;;;;;;;;;;;;14.75;41.94;100239.19;5056636;28;20500;-72
2022/04/14 11:09:03;;;;;;;9.75;3.97;;;;;;;14.89;42.89;100242.78;5056333;28;19924;-72
2022/04/14 11:11:31;;;;;;;10.38;3.70;;;;;;;14.82;42.48;100244.19;5056357;28;20111;-72
2022/04/14 11:14:23;;;;;;;8.82;3.65;;;;;;;14.84;42.09;100239.53;5056084;28;20053;-72
2022/04/14 11:16:51;;;;;;;7.07;3.30;;;;;;;14.99;42.42;100229.44;5056150;28;20079;-72
2022/04/14 11:19:29;;;;;;;8.13;3.83;;;;;;;14.83;42.39;100241.38;5056055;28;20048;-72
2022/04/14 11:22:07;;;;;;;8.23;3.60;;;;;;;15.04;42.20;100235.44;5056127;28;20056;-71
2022/04/14 11:24:40;;;;;;;9.05;3.72;;;;;;;15.02;42.22;100230.13;5055988;28;20442;-72
2022/04/14 11:27:12;;;;;;;9.18;3.80;;;;;;;15.01;43.70;100228.38;5056410;28;20051;-72